Terminal Aerodrome Forecast
Issued by NWS Cheyenne, WY

Home | Current Version | Previous Version | Text Only | Print | Product List | Glossary On
Versions: 1 2 3 4 5 6 7 8 9 10 11 12 13 14 15 16 17 18 19 20 21 22 23 24 25 26 27
000
FTUS45 KCYS 032347
TAFCYS
TAF
KCYS 032347Z 0400/0424 12009KT P6SM BKN100
     FM040400 13005KT P6SM OVC020
     FM040700 14005KT 4SM -RA BR OVC005
     FM041200 14006KT 1/2SM FG OVC001
     FM041800 14011KT 4SM BR OVC010=

USA.gov is the U.S. government's official web portal to all federal, state and local government web resources and services.